Disclaimer

Please do not use the information listed here in-flight or in-navigation, as they are not provided to us by the airports but are provided by volunteers, so they might be outdated.

Search


Regions


Airport information page

Radio informations:
Melbourne Center - 125.2 MHz
Common traffic adv. frequency (CTAF) - 119.1 MHz

Airport informations:
Latitude: 36° 24' 57.00" S
Longitude: 146° 18' 25.00" E
Elevation: 504 feet - 154 meters
Operating hours: N/A
Operating agency: Civil government, landing fees and diplomatic clearance may be required
Timezone: UTC+10(+11DT)
Fuel: Jet A1, without icing nhibitor.

100/130 MIL Spec, low lead, aviation gasoline (BLUE)

Runway information:
09/27 - 1739 x 60 feet< - >530 x 18 meters
18/36 - 5381 x 98 feet< - >1640 x 30 meters

Recent METARs:
YWGT 141600Z AUTO 24006KT 9999 // NCD 13/11 Q1015
YWGT 141600Z AUTO 24006KT 9999 // NCD 13/11 Q1015
YWGT 141700Z AUTO 25007KT 9999 // NCD 13/11 Q1015

Airport on the map: